Lockport, NY

9:49 PM EDT on September 23, 2014 (GMT -0400)
PENDLETON | Change Station
CLOSE
Current Station
Personal Weather Station
Location: LOCKPORT, NY
Elevation: 595 ft
Nearby Weather Stations

Elev 595 ft 43.10 °N, 78.80 °W | Updated 2 seconds ago

Clear
Clear
52.7 °F
Feels Like 52.7 °F
N
0.0
Wind Variable Wind from SW
Gusts 0.0 mph

Today
High -- | Low -- °F
--% Chance of Precip.
Yesterday
High -- | Low -- °F
Precip. -- in
7:03 AM 7:10 PM
Waning Crescent, 0% visible
Pressure 30.38 in
Visibility 10.0 miles
Clouds Clear
Dew Point 48 °F
Humidity 83%
Rainfall 0.00 in
Snow Depth Not available.
UV 0 out of 12
Pollen 3.50 out of 12
PM2.5 Good
Flu Activity Not available.
METAR KIAG 240053Z 20005KT 10SM CLR 14/11 A3037 RMK AO2 SLP287 T01440111

More Conditions Fewer Conditions

Pressure 30.38 in
Visibility 10.0 miles
Clouds Clear
Dew Point 48 °F
Humidity 83%
Rainfall 0.00 in
Snow Depth Not available.
UV 0 out of 12
Pollen 3.50 out of 12
PM2.5 Good
Flu Activity Not available.
METAR KIAG 240053Z 20005KT 10SM CLR 14/11 A3037 RMK AO2 SLP287 T01440111

More Conditions Fewer Conditions

10-Day Weather Forecast

Almanac

Astronomy

Sep. 23, 2014 Rise Set
Actual Time 7:03 AM EDT 7:10 PM EDT
Civil Twilight 6:35 AM EDT 7:39 PM EDT
Nautical Twilight 6:01 AM EDT 8:12 PM EDT
Astronomical Twilight 5:27 AM EDT 8:46 PM EDT
Moon 6:25 AM EDT (9/23) 6:48 PM EDT (9/23)
Length of Visible Light 13h 03m
Length of Day
12h 07m
Tomorrow will be 2m 54s shorter.
Waning Crescent, 0% of the Moon is Illuminated
Today
Waning Crescent
Sep 24
New
Oct 1
First Quarter
Oct 8
Full
Oct 15
Last Quarter

Today's Extremes

State Highs State Lows

Community

WunderPhotos

Upload Photos

1,755,844 photos uploaded!

Nearby

Air Quality

  Air Quality AQ Index Pollutant
Yesterday Good
PM2.5
Yesterday Good
OZONE
Current Good
PM2.5
Tuesday Good
OZONE
Tuesday Good
PM2.5
Wednesday Good
PM2.5
Wednesday Good
OZONE

Snow Depth

Station Depth Elevation
No new snow has been reported.

Earthquake Activity

City Distance Mag. Time & Date
No recent earthquake activity has been reported nearby.
Minimum magnitude displayed is 2.5.

Coastal Water Temperatures

Place Temperature
Buffalo, NY 66.0 °F

Nearby Weather Stations